Time;durP1;ratioP1;P1;durP2;ratioP2;P2;SDS_P1;SDS_P2;PMS_P1;PMS_P2;Temp;Humidity;BMP_temperature;BMP_pressure;BME280_temperature;BME280_humidity;BME280_pressure;Samples;Min_cycle;Max_cycle;Signal;HPM_P1;HPM_P2
2023/02/11 00:00:55;;;;;;;14.43;4.77;;;7.00;99.90;;;;;;5026654;28;20582;-61
2023/02/11 00:03:21;;;;;;;10.20;4.27;;;6.90;99.90;;;;;;5030890;28;20747;-61
2023/02/11 00:06:03;;;;;;;14.00;4.70;;;7.00;99.90;;;;;;5027547;28;20747;-61
2023/02/11 00:08:30;;;;;;;8.70;3.70;;;6.90;99.90;;;;;;5044840;28;20197;-61
2023/02/11 00:10:57;;;;;;;9.43;4.53;;;7.00;99.90;;;;;;5027448;28;20208;-61
2023/02/11 00:13:24;;;;;;;8.87;4.30;;;7.00;99.90;;;;;;5025094;28;20834;-61
2023/02/11 00:15:52;;;;;;;7.93;3.87;;;6.90;99.90;;;;;;5022966;28;20569;-61
2023/02/11 00:18:19;;;;;;;10.93;4.03;;;6.90;99.90;;;;;;5029160;28;20232;-61
2023/02/11 00:20:46;;;;;;;8.10;4.20;;;6.90;99.90;;;;;;5016194;28;20305;-62
2023/02/11 00:23:13;;;;;;;9.53;3.97;;;6.90;99.90;;;;;;5026382;28;20229;-60
2023/02/11 00:25:41;;;;;;;8.90;4.07;;;6.90;99.90;;;;;;5029504;28;20217;-60
2023/02/11 00:28:09;;;;;;;7.37;3.77;;;6.90;99.90;;;;;;5034275;28;20225;-61
2023/02/11 00:30:36;;;;;;;9.47;4.20;;;6.90;99.90;;;;;;5031656;28;20206;-60
2023/02/11 00:33:03;;;;;;;10.93;4.00;;;6.90;99.90;;;;;;5034874;28;20203;-61
2023/02/11 00:35:30;;;;;;;13.50;3.73;;;6.90;99.90;;;;;;5024281;28;20200;-60
2023/02/11 00:37:57;;;;;;;10.23;3.70;;;6.90;99.90;;;;;;5035984;28;20198;-61
2023/02/11 00:40:24;;;;;;;9.97;3.53;;;6.90;99.90;;;;;;5036762;28;20204;-60
2023/02/11 00:42:51;;;;;;;9.40;3.23;;;6.90;99.90;;;;;;5037480;28;20194;-60
2023/02/11 00:45:19;;;;;;;9.53;3.87;;;6.90;99.90;;;;;;5035894;28;20218;-61
2023/02/11 00:47:46;;;;;;;12.97;3.43;;;6.90;99.90;;;;;;5038575;28;20213;-63
2023/02/11 00:50:13;;;;;;;9.80;3.83;;;6.90;99.90;;;;;;5035971;28;20828;-60
2023/02/11 00:52:40;;;;;;;12.00;4.23;;;6.90;99.90;;;;;;5038244;28;20232;-60
2023/02/11 00:55:07;;;;;;;9.33;3.60;;;6.90;99.90;;;;;;5034526;28;20213;-61
2023/02/11 00:57:34;;;;;;;11.07;4.07;;;6.90;99.90;;;;;;5031386;28;20205;-60
2023/02/11 01:00:01;;;;;;;9.60;3.77;;;6.90;99.90;;;;;;5035686;28;20241;-60
2023/02/11 01:02:28;;;;;;;14.60;3.77;;;6.90;99.90;;;;;;5034408;28;20200;-60
2023/02/11 01:04:55;;;;;;;12.37;3.50;;;6.90;99.90;;;;;;5033741;28;20298;-63
2023/02/11 01:07:22;;;;;;;9.87;3.53;;;6.90;99.90;;;;;;5032038;28;20218;-60
2023/02/11 01:09:49;;;;;;;9.80;3.57;;;6.80;99.90;;;;;;5028412;28;20775;-62
2023/02/11 01:12:16;;;;;;;10.30;3.60;;;6.90;99.90;;;;;;5032608;28;20194;-61
2023/02/11 01:14:43;;;;;;;8.33;3.30;;;6.90;99.90;;;;;;5035482;28;20230;-61
2023/02/11 01:17:10;;;;;;;10.50;3.20;;;6.90;99.90;;;;;;5034471;28;20663;-62
2023/02/11 01:19:37;;;;;;;10.00;4.03;;;6.90;99.90;;;;;;5031909;28;20574;-61
2023/02/11 01:22:04;;;;;;;10.60;3.37;;;6.90;99.90;;;;;;5035648;28;20796;-61
2023/02/11 01:24:32;;;;;;;10.90;3.20;;;7.00;99.90;;;;;;5036894;28;20225;-62
2023/02/11 01:26:58;;;;;;;11.70;3.40;;;7.00;99.90;;;;;;5038887;28;20202;-64
2023/02/11 01:29:25;;;;;;;11.70;4.60;;;6.90;99.90;;;;;;5035412;28;20205;-61
2023/02/11 01:31:52;;;;;;;8.70;3.50;;;7.00;99.90;;;;;;5038684;28;20659;-61
2023/02/11 01:34:19;;;;;;;6.23;3.47;;;6.90;99.90;;;;;;5036028;28;20205;-62
2023/02/11 01:36:46;;;;;;;11.00;3.73;;;6.90;99.90;;;;;;5034192;28;20229;-62
2023/02/11 01:39:12;;;;;;;18.83;4.13;;;6.80;99.90;;;;;;5034580;28;20200;-62
2023/02/11 01:41:39;;;;;;;12.70;3.43;;;6.80;99.90;;;;;;5036178;28;20580;-62
2023/02/11 01:44:25;;;;;;;8.40;3.40;;;6.70;99.90;;;;;;5034384;28;20221;-62
2023/02/11 01:46:52;;;;;;;10.73;2.80;;;6.60;99.90;;;;;;5035451;28;20644;-62
2023/02/11 01:49:29;;;;;;;10.50;3.23;;;6.60;99.90;;;;;;5036013;28;20205;-62
2023/02/11 01:52:11;;;;;;;15.27;3.90;;;6.60;99.90;;;;;;5037879;28;20196;-62
2023/02/11 01:57:34;;;;;;;17.33;3.83;;;6.60;99.90;;;;;;5035566;28;20207;-63
2023/02/11 02:00:03;;;;;;;10.20;4.27;;;6.70;99.90;;;;;;5037314;28;20202;-61
2023/02/11 02:02:37;;;;;;;8.93;4.00;;;6.60;99.90;;;;;;5038367;28;20209;-62
2023/02/11 02:05:34;;;;;;;8.80;3.90;;;6.60;99.90;;;;;;5031229;28;20218;-63
2023/02/11 02:08:20;;;;;;;10.10;4.20;;;6.70;99.90;;;;;;4999970;28;20688;-62
2023/02/11 02:10:52;;;;;;;7.77;4.00;;;6.70;99.90;;;;;;5038961;28;20255;-61
2023/02/11 02:13:19;;;;;;;8.37;3.73;;;6.70;99.90;;;;;;5036035;28;20676;-61
2023/02/11 02:15:55;;;;;;;10.23;3.77;;;6.70;99.90;;;;;;5027997;28;20199;-62
2023/02/11 02:18:44;;;;;;;10.03;3.70;;;6.80;99.90;;;;;;5022720;28;20290;-62
2023/02/11 02:21:26;;;;;;;7.40;4.07;;;6.80;99.90;;;;;;5019947;28;20204;-62
2023/02/11 02:24:19;;;;;;;8.67;4.27;;;6.80;99.90;;;;;;5045453;28;20322;-62
2023/02/11 02:26:59;;;;;;;10.37;4.43;;;6.80;99.90;;;;;;5034052;28;20657;-62
2023/02/11 02:30:03;;;;;;;9.83;4.60;;;6.80;99.90;;;;;;5033918;28;20556;-62
2023/02/11 02:32:43;;;;;;;12.07;4.10;;;6.80;99.90;;;;;;5035956;28;20555;-61
2023/02/11 02:35:28;;;;;;;12.77;3.67;;;6.80;99.90;;;;;;5036419;28;20545;-61
2023/02/11 02:38:07;;;;;;;11.30;4.90;;;6.70;99.90;;;;;;5035164;28;20243;-62
2023/02/11 02:40:49;;;;;;;9.23;3.73;;;6.70;99.90;;;;;;5039265;28;20302;-62
2023/02/11 02:43:18;;;;;;;13.47;4.30;;;6.70;99.90;;;;;;5041263;28;20211;-61
2023/02/11 02:45:45;;;;;;;13.23;4.97;;;6.70;99.90;;;;;;5038412;28;20807;-62
2023/02/11 02:48:31;;;;;;;12.37;4.33;;;6.70;99.90;;;;;;5054270;28;20917;-62
2023/02/11 02:51:07;;;;;;;12.63;4.07;;;6.70;99.90;;;;;;5040742;28;20208;-62
2023/02/11 02:53:56;;;;;;;11.80;4.93;;;6.80;99.90;;;;;;5041866;28;20772;-61
2023/02/11 02:56:44;;;;;;;11.97;5.03;;;6.70;99.90;;;;;;5039141;28;20288;-61
2023/02/11 02:59:21;;;;;;;9.53;4.03;;;6.70;99.90;;;;;;5038476;28;20230;-62
2023/02/11 03:02:05;;;;;;;14.40;4.37;;;6.60;99.90;;;;;;5041182;28;20212;-61
2023/02/11 03:05:01;;;;;;;9.53;5.03;;;6.60;99.90;;;;;;5035326;28;20223;-62
2023/02/11 03:07:42;;;;;;;10.67;4.63;;;6.50;99.90;;;;;;5033208;28;20299;-62
2023/02/11 03:10:23;;;;;;;10.37;4.43;;;6.60;99.90;;;;;;5034202;28;20295;-62
2023/02/11 03:12:53;;;;;;;14.30;4.97;;;6.60;99.90;;;;;;5030859;28;20278;-64
2023/02/11 03:15:21;;;;;;;15.17;5.50;;;6.60;99.90;;;;;;5030514;28;20209;-61
2023/02/11 03:17:51;;;;;;;12.00;5.07;;;6.60;99.90;;;;;;5046251;28;20275;-61
2023/02/11 03:20:21;;;;;;;11.83;5.03;;;6.60;99.90;;;;;;5029095;28;20217;-62
2023/02/11 03:22:51;;;;;;;11.07;5.20;;;6.60;99.90;;;;;;5032512;28;20209;-62
2023/02/11 03:25:19;;;;;;;10.63;5.10;;;6.50;99.90;;;;;;5047015;28;20228;-62
2023/02/11 03:27:59;;;;;;;9.40;4.70;;;6.50;99.90;;;;;;5028481;28;20261;-61
2023/02/11 03:30:34;;;;;;;16.43;4.93;;;6.50;99.90;;;;;;5030551;28;20289;-62
2023/02/11 03:33:13;;;;;;;9.07;4.93;;;6.50;99.90;;;;;;5029768;28;20708;-62
2023/02/11 03:36:06;;;;;;;11.60;5.57;;;6.50;99.90;;;;;;5030973;28;20565;-61
2023/02/11 03:38:41;;;;;;;12.07;5.67;;;6.50;99.90;;;;;;5030223;28;20255;-65
2023/02/11 03:41:10;;;;;;;10.47;5.77;;;6.40;99.90;;;;;;5030680;28;20216;-64
2023/02/11 03:43:41;;;;;;;17.60;6.50;;;6.50;99.90;;;;;;5028281;28;20724;-62
2023/02/11 03:46:10;;;;;;;9.90;5.67;;;6.50;99.90;;;;;;5027247;28;20968;-62
2023/02/11 03:48:48;;;;;;;11.97;6.17;;;6.50;99.90;;;;;;5029165;28;20208;-62
2023/02/11 03:51:15;;;;;;;20.20;6.10;;;6.50;99.90;;;;;;5029192;28;20313;-62
2023/02/11 03:53:44;;;;;;;19.43;6.07;;;6.50;99.90;;;;;;5031839;28;21115;-62
2023/02/11 03:56:20;;;;;;;14.43;6.57;;;6.50;99.90;;;;;;5028206;28;20301;-62
2023/02/11 03:58:47;;;;;;;11.83;6.47;;;6.50;99.90;;;;;;5024167;28;20726;-63
2023/02/11 04:01:14;;;;;;;9.60;6.00;;;6.50;99.90;;;;;;5028633;28;20251;-62
2023/02/11 04:03:41;;;;;;;10.67;5.80;;;6.50;99.90;;;;;;5016349;28;20212;-64
2023/02/11 04:06:08;;;;;;;14.83;6.47;;;6.50;99.90;;;;;;5032809;28;20301;-62
2023/02/11 04:08:35;;;;;;;11.23;6.03;;;6.50;99.90;;;;;;5026834;28;20892;-62
2023/02/11 04:11:01;;;;;;;17.33;7.10;;;6.50;99.90;;;;;;5029398;28;20194;-62
2023/02/11 04:13:28;;;;;;;12.93;7.27;;;6.50;99.90;;;;;;5025047;28;20238;-60
2023/02/11 04:15:55;;;;;;;16.33;6.73;;;6.50;99.90;;;;;;5028759;28;20295;-60
2023/02/11 04:18:22;;;;;;;12.00;6.67;;;6.50;99.90;;;;;;5022896;28;20625;-60
2023/02/11 04:20:49;;;;;;;11.97;6.73;;;6.50;99.90;;;;;;5029809;28;20219;-61
2023/02/11 04:23:16;;;;;;;13.27;5.90;;;6.50;99.90;;;;;;5026078;28;20293;-61
2023/02/11 04:25:43;;;;;;;12.83;7.03;;;6.50;99.90;;;;;;5029255;28;20689;-61
2023/02/11 04:28:10;;;;;;;12.50;6.80;;;6.50;99.90;;;;;;5020697;28;20302;-60
2023/02/11 04:30:37;;;;;;;10.27;6.83;;;6.50;99.90;;;;;;5024659;28;20711;-61
2023/02/11 04:33:03;;;;;;;15.20;6.43;;;6.50;99.90;;;;;;5024616;28;20198;-60
2023/02/11 04:35:30;;;;;;;15.53;7.23;;;6.50;99.90;;;;;;5032317;28;20216;-60
2023/02/11 04:37:57;;;;;;;14.10;6.83;;;6.50;99.90;;;;;;5021712;28;20236;-60
2023/02/11 04:40:24;;;;;;;14.17;6.70;;;6.50;99.90;;;;;;5029403;28;20220;-60
2023/02/11 04:42:51;;;;;;;13.37;6.67;;;6.50;99.90;;;;;;5028425;28;20537;-61
2023/02/11 04:45:18;;;;;;;13.87;7.30;;;6.50;99.90;;;;;;5028877;28;20269;-60
2023/02/11 04:47:44;;;;;;;18.10;7.20;;;6.50;99.90;;;;;;5023619;28;20203;-61
2023/02/11 04:50:11;;;;;;;16.77;7.87;;;6.50;99.90;;;;;;5028462;28;20207;-65
2023/02/11 04:52:38;;;;;;;15.90;8.07;;;6.50;99.90;;;;;;5030698;28;20197;-60
2023/02/11 04:55:05;;;;;;;14.77;7.33;;;6.50;99.90;;;;;;5027236;28;20206;-60
2023/02/11 04:57:32;;;;;;;17.60;7.77;;;6.50;99.90;;;;;;5015923;28;20222;-60
2023/02/11 04:59:59;;;;;;;18.40;7.63;;;6.50;99.90;;;;;;5027707;28;20211;-61
2023/02/11 05:02:25;;;;;;;12.23;7.37;;;6.40;99.90;;;;;;5026276;28;20246;-61
2023/02/11 05:04:52;;;;;;;16.03;6.87;;;6.40;99.90;;;;;;5024727;28;20314;-60
2023/02/11 05:07:19;;;;;;;17.97;8.43;;;6.40;99.90;;;;;;5027792;28;20213;-61
2023/02/11 05:09:46;;;;;;;17.43;7.73;;;6.40;99.90;;;;;;5027779;28;20278;-61
2023/02/11 05:12:12;;;;;;;17.60;7.73;;;6.40;99.90;;;;;;5028206;28;21001;-60
2023/02/11 05:14:39;;;;;;;17.83;7.97;;;6.40;99.90;;;;;;5030740;28;20293;-60
2023/02/11 05:17:07;;;;;;;17.23;7.70;;;6.40;99.90;;;;;;5037908;28;20230;-59
2023/02/11 05:19:33;;;;;;;16.00;8.07;;;6.50;99.90;;;;;;5032826;28;20202;-58
2023/02/11 05:22:00;;;;;;;17.27;7.83;;;6.50;99.90;;;;;;5035549;28;20212;-59
2023/02/11 05:24:31;;;;;;;16.10;7.80;;;6.50;99.90;;;;;;5032496;28;20725;-60
2023/02/11 05:26:58;;;;;;;17.30;8.03;;;6.50;99.90;;;;;;5037081;28;20684;-59
2023/02/11 05:29:24;;;;;;;21.53;8.20;;;6.50;99.90;;;;;;5034700;28;20230;-62
2023/02/11 05:31:51;;;;;;;18.07;8.07;;;6.50;99.90;;;;;;5036243;28;20246;-60
2023/02/11 05:34:18;;;;;;;16.00;8.17;;;6.50;99.90;;;;;;5033605;28;20200;-58
2023/02/11 05:36:45;;;;;;;13.93;8.13;;;6.40;99.90;;;;;;5037374;28;20888;-59
2023/02/11 05:39:12;;;;;;;19.13;7.83;;;6.40;99.90;;;;;;5035861;28;20196;-59
2023/02/11 05:41:38;;;;;;;15.20;9.10;;;6.40;99.90;;;;;;5036221;28;20208;-59
2023/02/11 05:44:05;;;;;;;18.37;10.03;;;6.40;99.90;;;;;;5036944;28;20694;-61
2023/02/11 05:46:32;;;;;;;15.33;8.73;;;6.40;99.90;;;;;;5037642;28;20237;-59
2023/02/11 05:48:59;;;;;;;14.10;8.43;;;6.40;99.90;;;;;;5036345;28;20200;-59
2023/02/11 05:51:26;;;;;;;13.57;8.53;;;6.40;99.90;;;;;;5036794;28;20262;-60
2023/02/11 05:53:52;;;;;;;18.07;9.97;;;6.40;99.90;;;;;;5036347;28;20246;-60
2023/02/11 05:56:19;;;;;;;15.30;9.30;;;6.40;99.90;;;;;;5038394;28;20233;-59
2023/02/11 05:58:46;;;;;;;19.40;9.10;;;6.40;99.90;;;;;;5035409;28;20238;-59
2023/02/11 06:01:13;;;;;;;15.77;9.30;;;6.40;99.90;;;;;;5034763;28;20646;-59
2023/02/11 06:03:40;;;;;;;17.60;9.80;;;6.50;99.90;;;;;;5027620;28;20844;-59
2023/02/11 06:06:12;;;;;;;19.50;10.30;;;6.40;99.90;;;;;;5032657;28;20671;-59
2023/02/11 06:08:39;;;;;;;15.10;9.60;;;6.40;99.90;;;;;;5036153;28;20199;-60
2023/02/11 06:11:06;;;;;;;20.00;10.47;;;6.40;99.90;;;;;;5038447;28;20232;-60
2023/02/11 06:13:34;;;;;;;18.33;10.07;;;6.50;99.90;;;;;;5035217;28;20192;-61
2023/02/11 06:16:02;;;;;;;19.03;9.83;;;6.50;99.90;;;;;;5042065;28;20208;-60
2023/02/11 06:18:29;;;;;;;20.67;11.47;;;6.60;99.90;;;;;;5039276;28;20645;-60
2023/02/11 06:20:56;;;;;;;22.43;9.87;;;6.60;99.90;;;;;;5041602;28;20592;-60
2023/02/11 06:23:22;;;;;;;20.67;9.87;;;6.70;99.90;;;;;;5038840;28;20210;-59
2023/02/11 06:25:51;;;;;;;20.73;10.70;;;6.60;99.90;;;;;;5042123;28;20251;-60
2023/02/11 06:28:18;;;;;;;18.40;10.30;;;6.60;99.90;;;;;;5040696;28;20789;-60
2023/02/11 06:30:45;;;;;;;21.73;10.47;;;6.70;99.90;;;;;;5041039;28;20291;-60
2023/02/11 06:33:12;;;;;;;22.47;10.87;;;6.70;99.90;;;;;;5022930;28;20616;-60
2023/02/11 06:35:39;;;;;;;25.83;12.47;;;6.70;99.90;;;;;;5035648;28;20211;-59
2023/02/11 06:38:06;;;;;;;26.83;11.30;;;6.70;99.90;;;;;;5035839;28;20208;-60
2023/02/11 06:40:32;;;;;;;19.27;11.90;;;6.70;99.90;;;;;;5033714;28;20206;-59
2023/02/11 06:42:59;;;;;;;21.90;11.27;;;6.80;99.90;;;;;;5039152;28;20212;-60
2023/02/11 06:45:26;;;;;;;23.67;12.60;;;6.80;99.90;;;;;;5033395;28;20219;-60
2023/02/11 06:47:53;;;;;;;22.00;11.70;;;6.80;99.90;;;;;;5035994;28;20624;-60
2023/02/11 06:50:19;;;;;;;19.07;12.27;;;6.80;99.90;;;;;;5040831;28;20207;-59
2023/02/11 06:52:46;;;;;;;21.17;11.97;;;6.80;99.90;;;;;;5041297;28;20229;-60
2023/02/11 06:55:13;;;;;;;21.83;11.70;;;6.80;99.90;;;;;;5041754;28;20205;-59
2023/02/11 06:57:40;;;;;;;23.13;12.37;;;6.80;99.90;;;;;;5039229;28;20248;-60
2023/02/11 07:00:07;;;;;;;23.63;12.87;;;6.90;99.90;;;;;;5037149;28;20265;-62
2023/02/11 07:02:35;;;;;;;18.77;12.17;;;6.90;99.90;;;;;;5036963;28;20649;-59
2023/02/11 07:05:04;;;;;;;20.07;12.17;;;7.00;99.90;;;;;;5036384;28;20305;-60
2023/02/11 07:07:31;;;;;;;26.00;13.80;;;7.00;99.90;;;;;;5040978;28;20672;-59
2023/02/11 07:10:01;;;;;;;22.07;13.67;;;7.00;99.90;;;;;;5039648;28;20207;-60
2023/02/11 07:12:29;;;;;;;27.07;14.10;;;7.10;99.90;;;;;;5040207;28;20207;-59
2023/02/11 07:14:56;;;;;;;24.60;13.70;;;7.10;99.90;;;;;;5030391;28;20197;-60
2023/02/11 07:17:23;;;;;;;26.73;14.93;;;7.00;99.90;;;;;;5034152;28;20568;-59
2023/02/11 07:19:50;;;;;;;28.83;16.20;;;7.10;99.90;;;;;;5037498;28;20695;-60
2023/02/11 07:22:17;;;;;;;29.83;14.70;;;7.10;99.90;;;;;;5031231;28;20277;-60
2023/02/11 07:24:44;;;;;;;26.60;14.73;;;7.10;99.90;;;;;;5032853;28;20210;-61
2023/02/11 07:27:10;;;;;;;32.90;16.70;;;7.00;99.90;;;;;;5031592;28;20204;-59
2023/02/11 07:29:37;;;;;;;28.10;15.13;;;7.10;99.90;;;;;;5030333;28;20255;-59
2023/02/11 07:32:05;;;;;;;31.60;15.37;;;7.10;99.90;;;;;;5030452;28;20202;-59
2023/02/11 07:34:32;;;;;;;29.37;16.40;;;7.00;99.90;;;;;;5031668;28;20201;-59
2023/02/11 07:36:59;;;;;;;34.83;17.67;;;7.10;99.90;;;;;;5027123;28;20680;-63
2023/02/11 07:39:26;;;;;;;30.27;16.83;;;7.10;99.90;;;;;;5026049;28;20216;-60
2023/02/11 07:41:53;;;;;;;35.00;16.90;;;7.10;99.90;;;;;;4662841;28;10000096;-60
2023/02/11 07:44:20;;;;;;;30.40;16.10;;;7.20;99.90;;;;;;5011258;28;20763;-59
2023/02/11 07:46:48;;;;;;;35.97;17.57;;;7.30;99.90;;;;;;5019009;28;21686;-60
2023/02/11 07:49:15;;;;;;;31.10;17.20;;;7.20;99.90;;;;;;5024584;28;20293;-63
2023/02/11 07:51:42;;;;;;;28.77;16.60;;;7.20;99.90;;;;;;5015315;28;20212;-59
2023/02/11 07:54:10;;;;;;;35.23;17.63;;;7.20;99.90;;;;;;5015437;28;20203;-60
2023/02/11 07:56:37;;;;;;;39.53;18.30;;;7.30;99.90;;;;;;5031237;28;20855;-63
2023/02/11 07:59:03;;;;;;;34.87;17.73;;;7.20;99.90;;;;;;5014122;28;20194;-61
2023/02/11 08:01:30;;;;;;;34.00;17.63;;;7.30;99.90;;;;;;5024867;28;20209;-60
2023/02/11 08:03:59;;;;;;;33.13;18.03;;;7.20;99.90;;;;;;5029633;28;20205;-62
2023/02/11 08:06:29;;;;;;;34.20;17.40;;;7.20;99.90;;;;;;5027362;28;20216;-59
2023/02/11 08:08:56;;;;;;;35.57;18.10;;;7.10;99.90;;;;;;5018790;28;20270;-60
2023/02/11 08:11:25;;;;;;;35.87;18.47;;;7.10;99.90;;;;;;5036714;28;20489;-60
2023/02/11 08:13:54;;;;;;;42.27;18.07;;;7.10;99.90;;;;;;5023763;28;20202;-62
2023/02/11 08:16:24;;;;;;;31.73;18.47;;;7.10;99.90;;;;;;5022543;28;20219;-60
2023/02/11 08:18:52;;;;;;;34.80;18.43;;;7.10;99.90;;;;;;5022268;28;20241;-60
2023/02/11 08:21:20;;;;;;;29.33;17.23;;;7.30;99.90;;;;;;5027447;28;20553;-61
2023/02/11 08:23:48;;;;;;;35.70;19.07;;;7.20;99.90;;;;;;5024556;28;20218;-62
2023/02/11 08:26:18;;;;;;;34.23;18.77;;;7.20;99.90;;;;;;5022988;28;20681;-60
2023/02/11 08:28:46;;;;;;;33.33;17.63;;;7.20;99.90;;;;;;5025191;28;20602;-60
2023/02/11 08:31:19;;;;;;;31.87;18.43;;;7.30;99.90;;;;;;5027300;28;20208;-59
2023/02/11 08:33:47;;;;;;;29.00;16.63;;;7.30;99.90;;;;;;5027562;28;20279;-59
2023/02/11 08:36:17;;;;;;;29.97;18.03;;;7.30;99.90;;;;;;5029615;28;20240;-60
2023/02/11 08:38:44;;;;;;;34.07;17.77;;;7.30;99.90;;;;;;5037192;28;20196;-60
2023/02/11 08:41:13;;;;;;;29.50;17.87;;;7.40;99.90;;;;;;5037507;28;20212;-60
2023/02/11 08:43:42;;;;;;;34.43;18.37;;;7.40;99.90;;;;;;5035179;28;20319;-60
2023/02/11 08:46:12;;;;;;;33.17;18.13;;;7.40;99.90;;;;;;5028552;28;20210;-60
2023/02/11 08:48:39;;;;;;;31.47;17.60;;;7.40;99.90;;;;;;5033363;28;20196;-61
2023/02/11 08:51:15;;;;;;;34.73;18.40;;;7.40;99.90;;;;;;5030149;28;20205;-60
2023/02/11 08:53:42;;;;;;;41.87;19.10;;;7.50;99.90;;;;;;5034686;28;20234;-60
2023/02/11 08:56:10;;;;;;;33.97;17.90;;;7.60;99.90;;;;;;5035033;28;20638;-60
2023/02/11 08:58:39;;;;;;;30.97;17.03;;;7.50;99.90;;;;;;5035599;28;20571;-59
2023/02/11 09:01:15;;;;;;;31.17;17.33;;;7.50;99.90;;;;;;5035359;28;20201;-59
2023/02/11 09:03:43;;;;;;;31.90;16.20;;;7.50;99.90;;;;;;5035190;28;20228;-60
2023/02/11 09:06:11;;;;;;;33.87;19.10;;;7.60;99.90;;;;;;5030572;28;20450;-59
2023/02/11 09:08:43;;;;;;;32.23;17.90;;;7.60;99.90;;;;;;5029030;28;20216;-60
2023/02/11 09:11:12;;;;;;;31.50;17.53;;;7.60;99.90;;;;;;5033008;28;20204;-62
2023/02/11 09:13:41;;;;;;;33.23;18.47;;;7.60;99.90;;;;;;5035920;28;20661;-59
2023/02/11 09:16:14;;;;;;;33.23;17.93;;;7.70;99.90;;;;;;5036227;28;20202;-59
2023/02/11 09:18:41;;;;;;;35.20;18.80;;;7.70;99.90;;;;;;5031981;28;20246;-59
2023/02/11 09:21:09;;;;;;;29.70;17.20;;;7.80;99.90;;;;;;5037913;28;20644;-62
2023/02/11 09:23:35;;;;;;;25.93;15.43;;;7.80;99.90;;;;;;5035354;28;20232;-61
2023/02/11 09:26:12;;;;;;;34.43;15.50;;;7.90;99.90;;;;;;5035148;28;20219;-59
2023/02/11 09:28:39;;;;;;;25.93;15.70;;;7.80;99.90;;;;;;5032357;28;20201;-64
2023/02/11 09:31:08;;;;;;;32.40;17.23;;;7.90;99.90;;;;;;5030628;28;20263;-60
2023/02/11 09:33:35;;;;;;;33.43;17.13;;;8.00;99.90;;;;;;5027546;28;20206;-62
2023/02/11 09:36:04;;;;;;;30.90;16.43;;;8.10;99.90;;;;;;5036208;28;20261;-59
2023/02/11 09:38:32;;;;;;;28.63;16.10;;;8.10;99.90;;;;;;5036261;28;20211;-60
2023/02/11 09:41:02;;;;;;;32.07;17.00;;;8.00;99.90;;;;;;5036990;28;20294;-59
2023/02/11 09:43:42;;;;;;;33.30;17.03;;;8.00;99.90;;;;;;5035560;28;20592;-59
2023/02/11 09:46:14;;;;;;;26.57;16.30;;;8.00;99.90;;;;;;5018850;28;20306;-59
2023/02/11 09:48:44;;;;;;;30.37;15.67;;;8.00;99.90;;;;;;5037489;28;20199;-59
2023/02/11 09:51:43;;;;;;;28.30;16.33;;;8.10;99.90;;;;;;5038017;28;20203;-59
2023/02/11 09:54:18;;;;;;;25.97;16.03;;;8.20;99.90;;;;;;5021920;28;20297;-60
2023/02/11 09:56:46;;;;;;;29.43;15.53;;;8.20;99.90;;;;;;5033238;28;20566;-60
2023/02/11 09:59:15;;;;;;;31.07;16.40;;;8.20;99.90;;;;;;5026908;28;20211;-59
2023/02/11 10:02:15;;;;;;;29.20;15.70;;;8.20;99.90;;;;;;5021738;28;20242;-59
2023/02/11 10:05:16;;;;;;;29.63;14.40;;;8.30;99.90;;;;;;4963317;28;20263;-58
2023/02/11 10:08:19;;;;;;;28.03;15.37;;;8.30;99.90;;;;;;5032883;28;20287;-59
2023/02/11 10:11:20;;;;;;;25.60;14.90;;;8.20;99.90;;;;;;5031871;28;20246;-60
2023/02/11 10:14:22;;;;;;;21.87;13.73;;;8.20;99.90;;;;;;5036665;28;20202;-62
2023/02/11 10:17:00;;;;;;;30.43;14.90;;;8.20;99.90;;;;;;5034877;28;20261;-60
2023/02/11 10:19:58;;;;;;;26.20;14.93;;;8.30;99.90;;;;;;5031834;28;20335;-59
2023/02/11 10:22:31;;;;;;;27.60;14.67;;;8.30;99.90;;;;;;5036118;28;20353;-59
2023/02/11 10:24:59;;;;;;;27.93;15.00;;;8.30;99.90;;;;;;5034956;28;20202;-60
2023/02/11 10:27:34;;;;;;;26.67;14.93;;;8.30;99.90;;;;;;5036245;28;20215;-60
2023/02/11 10:30:15;;;;;;;29.30;14.33;;;8.30;99.90;;;;;;5035317;28;20588;-60
2023/02/11 10:32:58;;;;;;;25.63;14.60;;;8.50;99.90;;;;;;5033808;28;20293;-60
2023/02/11 10:35:26;;;;;;;26.00;12.87;;;8.50;99.90;;;;;;5038719;28;20203;-63
2023/02/11 10:37:54;;;;;;;25.47;14.43;;;8.50;99.90;;;;;;5037849;28;20212;-60
2023/02/11 10:40:27;;;;;;;22.90;14.43;;;8.50;99.90;;;;;;5037559;28;20310;-60
2023/02/11 10:43:01;;;;;;;28.67;15.00;;;8.40;99.90;;;;;;5033740;28;20294;-59
2023/02/11 10:45:48;;;;;;;31.53;15.70;;;8.50;99.90;;;;;;5029490;28;20582;-60
2023/02/11 10:48:48;;;;;;;24.73;14.87;;;8.60;99.90;;;;;;5024513;28;20842;-61
2023/02/11 10:51:17;;;;;;;22.80;14.87;;;8.60;99.90;;;;;;5024117;28;20205;-60
2023/02/11 10:53:45;;;;;;;23.63;14.37;;;8.50;99.90;;;;;;5039596;28;20211;-59
2023/02/11 10:56:21;;;;;;;26.33;14.27;;;8.70;99.90;;;;;;5037146;28;20299;-59
2023/02/11 10:59:20;;;;;;;26.83;14.13;;;8.60;99.90;;;;;;5037780;28;20997;-60
2023/02/11 11:01:56;;;;;;;26.00;13.33;;;8.60;99.90;;;;;;5008814;28;20672;-59
2023/02/11 11:04:29;;;;;;;24.60;13.87;;;8.70;99.90;;;;;;5039368;28;20250;-64
2023/02/11 11:07:08;;;;;;;24.17;14.50;;;8.60;99.90;;;;;;5037944;28;20303;-60
2023/02/11 11:09:50;;;;;;;21.50;14.07;;;8.60;99.90;;;;;;5037769;28;20548;-60
2023/02/11 11:12:43;;;;;;;24.57;14.77;;;8.70;99.90;;;;;;5035323;28;20211;-60
2023/02/11 11:15:10;;;;;;;27.03;13.37;;;8.70;99.90;;;;;;5029478;28;20300;-63
2023/02/11 11:17:37;;;;;;;22.90;14.10;;;8.70;99.90;;;;;;5035300;28;20250;-62
2023/02/11 11:20:27;;;;;;;24.57;13.97;;;8.70;99.90;;;;;;5036244;28;20659;-63
2023/02/11 11:23:07;;;;;;;29.83;14.67;;;8.80;99.90;;;;;;5022749;28;20209;-63
2023/02/11 11:25:36;;;;;;;25.07;15.50;;;8.80;99.90;;;;;;5037027;28;20286;-60
2023/02/11 11:28:03;;;;;;;21.13;12.93;;;8.80;99.90;;;;;;5035901;28;20298;-61
2023/02/11 11:30:37;;;;;;;24.73;13.07;;;8.80;99.90;;;;;;5033105;28;20202;-61
2023/02/11 11:33:19;;;;;;;27.40;13.67;;;8.90;99.90;;;;;;5033034;28;20298;-60
2023/02/11 11:36:06;;;;;;;21.73;13.53;;;9.00;99.90;;;;;;5035529;28;20243;-59
2023/02/11 11:38:36;;;;;;;22.30;13.37;;;9.00;99.90;;;;;;5031373;28;20561;-60
2023/02/11 11:41:33;;;;;;;24.37;12.83;;;9.00;99.90;;;;;;5051553;28;20206;-59
2023/02/11 11:44:03;;;;;;;20.23;12.33;;;9.10;99.90;;;;;;5024654;28;20298;-60
2023/02/11 11:46:37;;;;;;;23.30;12.50;;;9.00;99.90;;;;;;5034539;28;20225;-61
2023/02/11 11:49:11;;;;;;;21.73;13.07;;;9.00;99.90;;;;;;5039318;28;20302;-61
2023/02/11 11:51:40;;;;;;;25.20;13.67;;;9.00;99.90;;;;;;5038727;28;20351;-60
2023/02/11 11:54:14;;;;;;;23.93;13.50;;;9.00;99.90;;;;;;5039998;28;20197;-60
2023/02/11 11:56:59;;;;;;;25.00;13.00;;;9.00;99.90;;;;;;5031439;28;20254;-60
2023/02/11 11:59:27;;;;;;;18.90;12.70;;;9.00;99.90;;;;;;5030509;28;20671;-60
2023/02/11 12:02:18;;;;;;;21.07;11.90;;;9.00;99.90;;;;;;5036891;28;20212;-60
2023/02/11 12:05:23;;;;;;;24.93;13.50;;;9.10;99.90;;;;;;5038982;28;20260;-60
2023/02/11 12:08:12;;;;;;;23.00;12.80;;;9.10;99.90;;;;;;5033700;28;20261;-60
2023/02/11 12:11:12;;;;;;;19.10;12.13;;;9.20;99.90;;;;;;5034557;28;20199;-60
2023/02/11 12:14:15;;;;;;;21.00;11.87;;;9.30;99.90;;;;;;5033473;28;20209;-60
2023/02/11 12:17:10;;;;;;;18.30;12.63;;;9.40;99.90;;;;;;4928113;28;20305;-60
2023/02/11 12:19:46;;;;;;;21.23;13.23;;;9.30;99.90;;;;;;5036192;28;20274;-60
2023/02/11 12:22:40;;;;;;;24.93;12.53;;;9.30;99.90;;;;;;5035417;28;20278;-60
2023/02/11 12:25:25;;;;;;;20.77;12.47;;;9.30;99.90;;;;;;5038139;28;20206;-59
2023/02/11 12:27:52;;;;;;;24.03;12.37;;;9.30;99.90;;;;;;5034863;28;20289;-60
2023/02/11 12:30:27;;;;;;;23.80;12.87;;;9.40;99.90;;;;;;5036626;28;20287;-62
2023/02/11 12:33:35;;;;;;;20.90;13.37;;;9.50;99.90;;;;;;5052638;28;20578;-63
2023/02/11 12:36:12;;;;;;;25.93;14.00;;;9.60;99.90;;;;;;5070394;28;20654;-63
2023/02/11 12:38:55;;;;;;;21.27;12.53;;;9.60;99.90;;;;;;5054402;28;20260;-66
2023/02/11 12:45:01;;;;;;;29.43;13.43;;;9.70;99.90;;;;;;5046930;28;20284;-65
2023/02/11 12:47:57;;;;;;;25.40;13.20;;;9.70;99.90;;;;;;5048947;28;20192;-63
2023/02/11 12:50:44;;;;;;;22.23;13.37;;;9.80;99.90;;;;;;5048348;28;20231;-62
2023/02/11 12:53:33;;;;;;;25.37;13.97;;;9.90;99.90;;;;;;5048050;28;20297;-64
2023/02/11 12:56:11;;;;;;;24.23;14.50;;;9.90;99.90;;;;;;5050857;28;20502;-64
2023/02/11 12:58:39;;;;;;;21.57;14.70;;;9.80;99.90;;;;;;5046963;28;20580;-63
2023/02/11 13:01:31;;;;;;;21.37;13.70;;;9.80;99.90;;;;;;5051667;28;20212;-64
2023/02/11 13:04:22;;;;;;;21.20;13.77;;;9.70;99.90;;;;;;5054487;28;20676;-63
2023/02/11 13:07:01;;;;;;;22.43;13.47;;;9.80;99.90;;;;;;5051874;28;20240;-63
2023/02/11 13:09:37;;;;;;;21.87;13.20;;;9.80;99.90;;;;;;5052535;28;20287;-63
2023/02/11 13:14:55;;;;;;;22.87;13.53;;;9.90;99.90;;;;;;5047866;28;21225;-63
2023/02/11 13:17:34;;;;;;;19.63;13.37;;;9.80;99.90;;;;;;5054069;28;20674;-63
2023/02/11 13:20:13;;;;;;;21.23;12.90;;;9.90;99.90;;;;;;5052966;28;20226;-63